Time,TemperatureF,DewpointF,PressureIn,WindDirection,WindDirectionDegrees,WindSpeedMPH,WindSpeedGustMPH,Humidity,HourlyPrecipIn,Conditions,Clouds,dailyrainin,SoftwareType,DateUTC
2013-06-17 00:02:00,58.0,57.0,-100.00,NNW,330,0.0,1.0,97,0.00,,,-99.99,,2013-06-17 04:02:00,
2013-06-17 00:12:00,58.0,57.0,-100.00,NW,310,1.0,1.0,97,0.00,,,-99.99,,2013-06-17 04:12:00,
2013-06-17 00:22:00,57.0,56.0,-100.00,North,350,1.0,6.0,97,0.00,,,-99.99,,2013-06-17 04:22:00,
2013-06-17 00:34:00,58.0,57.0,-100.00,WNW,300,0.0,2.0,97,0.00,,,-99.99,,2013-06-17 04:34:00,
2013-06-17 00:43:00,58.0,57.0,-100.00,West,270,0.0,4.0,97,0.00,,,-99.99,,2013-06-17 04:43:00,
2013-06-17 00:53:00,58.0,57.0,-100.00,SW,220,0.0,1.0,97,0.00,,,-99.99,,2013-06-17 04:53:00,
2013-06-17 01:02:00,58.0,57.0,-100.00,South,175,0.0,1.0,97,0.00,,,-99.99,,2013-06-17 05:02:00,
2013-06-17 01:12:00,57.0,56.0,-100.00,WNW,285,0.0,1.0,96,0.00,,,-99.99,,2013-06-17 05:12:00,
2013-06-17 01:22:00,57.0,56.0,-100.00,SSW,205,1.0,1.0,96,0.00,,,-99.99,,2013-06-17 05:22:00,
2013-06-17 01:33:00,56.0,56.0,-100.00,SW,225,1.0,1.0,96,0.00,,,-99.99,,2013-06-17 05:33:00,
2013-06-17 01:44:00,55.0,54.0,-100.00,SW,225,0.0,3.0,96,0.00,,,-99.99,,2013-06-17 05:44:00,
2013-06-17 01:53:00,55.0,54.0,-100.00,West,265,0.0,3.0,96,0.00,,,-99.99,,2013-06-17 05:53:00,
2013-06-17 02:02:00,55.0,54.0,-100.00,SW,235,1.0,1.0,96,0.00,,,-99.99,,2013-06-17 06:02:00,
2013-06-17 02:12:00,55.0,54.0,-100.00,South,190,0.0,1.0,96,0.00,,,-99.99,,2013-06-17 06:12:00,
2013-06-17 02:22:00,55.0,54.0,-100.00,NW,305,0.0,1.0,96,0.00,,,-99.99,,2013-06-17 06:22:00,
2013-06-17 02:33:00,54.0,53.0,-100.00,SW,220,0.0,1.0,96,0.00,,,-99.99,,2013-06-17 06:33:00,
2013-06-17 02:43:00,54.0,53.0,-100.00,West,265,0.0,2.0,97,0.00,,,-99.99,,2013-06-17 06:43:00,
2013-06-17 02:53:00,54.0,53.0,-100.00,North,-999,-999.0,-999.0,97,0.00,,,-99.99,,2013-06-17 06:53:00,
2013-06-17 03:02:00,54.0,53.0,-100.00,SW,225,0.0,1.0,97,0.00,,,-99.99,,2013-06-17 07:02:00,
2013-06-17 03:12:00,54.0,53.0,-100.00,NNW,345,1.0,2.0,97,0.00,,,-99.99,,2013-06-17 07:12:00,
2013-06-17 03:22:00,53.0,52.0,-100.00,NW,315,0.0,1.0,97,0.00,,,-99.99,,2013-06-17 07:22:00,
2013-06-17 03:33:00,53.0,52.0,-100.00,ESE,115,0.0,2.0,97,0.00,,,-99.99,,2013-06-17 07:33:00,
2013-06-17 03:43:00,53.0,53.0,-100.00,SSE,160,1.0,2.0,97,0.00,,,-99.99,,2013-06-17 07:43:00,
2013-06-17 03:53:00,53.0,53.0,-100.00,South,190,1.0,4.0,97,0.00,,,-99.99,,2013-06-17 07:53:00,
2013-06-17 04:02:00,54.0,53.0,-100.00,SW,235,0.0,2.0,97,0.00,,,-99.99,,2013-06-17 08:02:00,
2013-06-17 04:12:00,53.0,53.0,-100.00,SW,220,0.0,1.0,97,0.00,,,-99.99,,2013-06-17 08:12:00,
2013-06-17 04:22:00,53.0,53.0,-100.00,West,260,0.0,1.0,97,0.00,,,-99.99,,2013-06-17 08:22:00,
2013-06-17 04:34:00,53.0,52.0,-100.00,West,265,0.0,2.0,97,0.00,,,-99.99,,2013-06-17 08:34:00,
2013-06-17 04:43:00,52.0,51.0,-100.00,West,260,0.0,1.0,97,0.00,,,-99.99,,2013-06-17 08:43:00,
2013-06-17 04:53:00,52.0,51.0,-100.00,West,260,0.0,2.0,97,0.00,,,-99.99,,2013-06-17 08:53:00,
2013-06-17 05:02:00,52.0,51.0,-100.00,WNW,285,0.0,1.0,97,0.00,,,-99.99,,2013-06-17 09:02:00,
2013-06-17 05:12:00,52.0,51.0,-100.00,WSW,240,0.0,1.0,97,0.00,,,-99.99,,2013-06-17 09:12:00,
2013-06-17 05:22:00,52.0,52.0,-100.00,West,275,0.0,0.0,97,0.00,,,-99.99,,2013-06-17 09:22:00,
2013-06-17 05:34:00,53.0,52.0,-100.00,WSW,240,0.0,0.0,97,0.00,,,-99.99,,2013-06-17 09:34:00,
2013-06-17 05:44:00,53.0,52.0,-100.00,North,5,1.0,2.0,97,0.00,,,-99.99,,2013-06-17 09:44:00,
2013-06-17 05:52:00,53.0,52.0,-100.00,West,270,0.0,3.0,97,0.00,,,-99.99,,2013-06-17 09:52:00,
2013-06-17 06:02:00,53.0,52.0,-100.00,WSW,250,0.0,1.0,97,0.00,,,-99.99,,2013-06-17 10:02:00,
2013-06-17 06:12:00,53.0,52.0,-100.00,North,-999,-999.0,-999.0,97,-99.99,,,-99.99,,2013-06-17 10:12:00,
2013-06-17 06:22:00,53.0,53.0,-100.00,SSE,150,1.0,3.0,97,0.00,,,-99.99,,2013-06-17 10:22:00,
2013-06-17 06:33:00,54.0,53.0,-100.00,West,280,0.0,4.0,97,0.00,,,-99.99,,2013-06-17 10:33:00,
2013-06-17 06:43:00,54.0,54.0,-100.00,WSW,255,1.0,3.0,97,0.00,,,-99.99,,2013-06-17 10:43:00,
2013-06-17 06:53:00,55.0,54.0,-100.00,WSW,240,0.0,3.0,97,0.00,,,-99.99,,2013-06-17 10:53:00,
2013-06-17 07:02:00,56.0,55.0,-100.00,West,260,1.0,2.0,97,0.00,,,-99.99,,2013-06-17 11:02:00,
2013-06-17 07:12:00,55.0,55.0,-100.00,SW,225,1.0,4.0,97,0.00,,,-99.99,,2013-06-17 11:12:00,
2013-06-17 07:23:00,56.0,56.0,-100.00,WSW,255,1.0,4.0,97,0.00,,,-99.99,,2013-06-17 11:23:00,
2013-06-17 07:33:00,58.0,58.0,-100.00,WSW,240,1.0,3.0,97,0.00,,,-99.99,,2013-06-17 11:33:00,
2013-06-17 07:43:00,57.0,57.0,-100.00,NW,305,0.0,2.0,97,0.00,,,-99.99,,2013-06-17 11:43:00,
2013-06-17 07:53:00,57.0,56.0,-100.00,WSW,240,1.0,4.0,97,0.00,,,-99.99,,2013-06-17 11:53:00,
2013-06-17 08:02:00,58.0,58.0,-100.00,SW,230,1.0,3.0,97,0.00,,,-99.99,,2013-06-17 12:02:00,
2013-06-17 08:12:00,59.0,58.0,-100.00,SSE,165,1.0,2.0,96,0.00,,,-99.99,,2013-06-17 12:12:00,
2013-06-17 08:23:00,60.0,59.0,-100.00,South,180,1.0,5.0,94,0.00,,,-99.99,,2013-06-17 12:23:00,
2013-06-17 08:33:00,60.0,58.0,-100.00,WSW,240,1.0,6.0,93,0.00,,,-99.99,,2013-06-17 12:33:00,
2013-06-17 08:43:00,60.0,57.0,-100.00,South,190,1.0,4.0,91,0.00,,,-99.99,,2013-06-17 12:43:00,
2013-06-17 08:53:00,60.0,58.0,-100.00,North,0,1.0,6.0,91,0.00,,,-99.99,,2013-06-17 12:53:00,
2013-06-17 09:02:00,61.0,58.0,-100.00,WSW,250,1.0,3.0,89,0.00,,,-99.99,,2013-06-17 13:02:00,
2013-06-17 09:12:00,62.0,58.0,-100.00,SW,215,1.0,4.0,87,0.00,,,-99.99,,2013-06-17 13:12:00,
2013-06-17 09:22:00,62.0,58.0,-100.00,East,80,1.0,4.0,86,0.00,,,-99.99,,2013-06-17 13:22:00,
2013-06-17 09:32:00,62.0,58.0,-100.00,SSW,210,1.0,6.0,86,0.00,,,-99.99,,2013-06-17 13:32:00,
2013-06-17 09:43:00,65.0,59.0,-100.00,West,265,1.0,4.0,81,0.00,,,-99.99,,2013-06-17 13:43:00,
2013-06-17 09:52:00,66.0,59.0,-100.00,SW,225,1.0,6.0,78,0.00,,,-99.99,,2013-06-17 13:52:00,
2013-06-17 10:02:00,65.0,59.0,-100.00,SSW,210,1.0,7.0,80,0.00,,,-99.99,,2013-06-17 14:02:00,
2013-06-17 10:12:00,66.0,59.0,-100.00,South,180,1.0,6.0,80,0.00,,,-99.99,,2013-06-17 14:12:00,
2013-06-17 10:22:00,67.0,59.0,-100.00,WSW,255,1.0,6.0,74,0.00,,,-99.99,,2013-06-17 14:22:00,
2013-06-17 10:34:00,67.0,60.0,-100.00,SSW,200,2.0,9.0,75,0.00,,,-99.99,,2013-06-17 14:34:00,
2013-06-17 10:43:00,66.0,59.0,-100.00,WSW,240,2.0,7.0,78,0.00,,,-99.99,,2013-06-17 14:43:00,
2013-06-17 10:53:00,66.0,59.0,-100.00,West,260,1.0,7.0,77,0.00,,,-99.99,,2013-06-17 14:53:00,
2013-06-17 11:02:00,69.0,60.0,-100.00,East,90,1.0,2.0,74,0.00,,,-99.99,,2013-06-17 15:02:00,
2013-06-17 11:12:00,70.0,60.0,-100.00,SW,215,1.0,7.0,70,0.00,,,-99.99,,2013-06-17 15:12:00,
2013-06-17 11:22:00,69.0,59.0,-100.00,WSW,255,1.0,4.0,70,0.00,,,-99.99,,2013-06-17 15:22:00,
2013-06-17 11:33:00,70.0,59.0,-100.00,SSW,195,1.0,4.0,68,0.00,,,-99.99,,2013-06-17 15:33:00,
2013-06-17 11:43:00,71.0,56.0,-100.00,WNW,300,3.0,11.0,58,0.00,,,-99.99,,2013-06-17 15:43:00,
2013-06-17 11:52:00,71.0,59.0,-100.00,SW,220,1.0,11.0,64,0.00,,,-99.99,,2013-06-17 15:52:00,
2013-06-17 12:02:00,72.0,57.0,-100.00,WNW,300,1.0,7.0,59,0.00,,,-99.99,,2013-06-17 16:02:00,
2013-06-17 12:12:00,73.0,55.0,-100.00,West,270,1.0,9.0,54,0.00,,,-99.99,,2013-06-17 16:12:00,
2013-06-17 12:22:00,73.0,55.0,-100.00,WNW,290,2.0,7.0,51,0.00,,,-99.99,,2013-06-17 16:22:00,
2013-06-17 12:33:00,74.0,54.0,-100.00,WNW,300,4.0,9.0,49,0.00,,,-99.99,,2013-06-17 16:33:00,
2013-06-17 12:43:00,73.0,54.0,-100.00,NNW,335,3.0,12.0,51,0.00,,,-99.99,,2013-06-17 16:43:00,
2013-06-17 12:53:00,73.0,53.0,-100.00,West,270,3.0,12.0,49,0.00,,,-99.99,,2013-06-17 16:53:00,
2013-06-17 13:02:00,72.0,54.0,-100.00,NNW,330,2.0,7.0,53,0.00,,,-99.99,,2013-06-17 17:02:00,
2013-06-17 13:12:00,70.0,55.0,-100.00,SW,230,1.0,4.0,58,0.01,,,-99.99,,2013-06-17 17:12:00,
2013-06-17 13:22:00,67.0,58.0,-100.00,SW,220,1.0,3.0,74,0.11,,,-99.99,,2013-06-17 17:22:00,
2013-06-17 13:33:00,67.0,59.0,-100.00,WNW,285,1.0,6.0,76,0.00,,,-99.99,,2013-06-17 17:33:00,
2013-06-17 13:43:00,68.0,57.0,-100.00,WNW,290,1.0,7.0,69,0.00,,,-99.99,,2013-06-17 17:43:00,
2013-06-17 13:52:00,70.0,57.0,-100.00,West,270,1.0,5.0,63,0.00,,,-99.99,,2013-06-17 17:52:00,
2013-06-17 14:02:00,70.0,56.0,-100.00,SW,230,1.0,4.0,61,0.00,,,-99.99,,2013-06-17 18:02:00,
2013-06-17 14:12:00,70.0,58.0,-100.00,North,5,1.0,3.0,64,0.00,,,-99.99,,2013-06-17 18:12:00,
2013-06-17 14:23:00,70.0,56.0,-100.00,WNW,300,3.0,6.0,62,0.00,,,-99.99,,2013-06-17 18:23:00,
2013-06-17 14:33:00,69.0,58.0,-100.00,West,270,2.0,6.0,66,0.14,,,-99.99,,2013-06-17 18:33:00,
2013-06-17 14:43:00,68.0,59.0,-100.00,WSW,250,1.0,6.0,72,0.03,,,-99.99,,2013-06-17 18:43:00,
2013-06-17 14:53:00,67.0,60.0,-100.00,West,270,0.0,5.0,79,0.00,,,-99.99,,2013-06-17 18:53:00,
2013-06-17 15:02:00,66.0,62.0,-100.00,SSE,165,0.0,2.0,84,0.00,,,-99.99,,2013-06-17 19:02:00,
2013-06-17 15:12:00,66.0,62.0,-100.00,SSE,165,0.0,2.0,84,0.00,,,-99.99,,2013-06-17 19:12:00,
2013-06-17 15:22:00,66.0,62.0,-100.00,SSE,165,0.0,2.0,84,0.00,,,-99.99,,2013-06-17 19:22:00,
2013-06-17 15:33:00,66.0,62.0,-100.00,SSE,165,0.0,2.0,84,0.00,,,-99.99,,2013-06-17 19:33:00,
2013-06-17 15:43:00,63.0,60.0,-100.00,NNW,330,1.0,4.0,89,0.01,,,-99.99,,2013-06-17 19:43:00,
2013-06-17 15:54:00,63.0,61.0,-100.00,WSW,250,1.0,4.0,90,0.00,,,-99.99,,2013-06-17 19:54:00,
2013-06-17 16:02:00,65.0,62.0,-100.00,NNW,345,1.0,4.0,89,0.00,,,-99.99,,2013-06-17 20:02:00,
2013-06-17 16:11:00,66.0,60.0,-100.00,WSW,250,1.0,7.0,83,0.00,,,-99.99,,2013-06-17 20:11:00,
2013-06-17 16:22:00,65.0,60.0,-100.00,East,80,0.0,4.0,81,0.00,,,-99.99,,2013-06-17 20:22:00,
2013-06-17 16:34:00,66.0,58.0,-100.00,NNW,330,4.0,9.0,74,0.00,,,-99.99,,2013-06-17 20:34:00,
2013-06-17 16:43:00,67.0,60.0,-100.00,ESE,105,2.0,9.0,76,0.00,,,-99.99,,2013-06-17 20:43:00,
2013-06-17 16:52:00,68.0,59.0,-100.00,WNW,295,2.0,6.0,72,0.00,,,-99.99,,2013-06-17 20:52:00,
2013-06-17 17:02:00,68.0,58.0,-100.00,NW,325,2.0,7.0,70,0.00,,,-99.99,,2013-06-17 21:02:00,
2013-06-17 17:12:00,67.0,58.0,-100.00,West,265,1.0,9.0,73,0.00,,,-99.99,,2013-06-17 21:12:00,
2013-06-17 17:22:00,68.0,59.0,-100.00,WNW,295,1.0,5.0,73,0.00,,,-99.99,,2013-06-17 21:22:00,
2013-06-17 17:33:00,68.0,59.0,-100.00,WSW,255,1.0,4.0,72,0.00,,,-99.99,,2013-06-17 21:33:00,
2013-06-17 17:43:00,67.0,58.0,-100.00,NW,305,1.0,6.0,71,0.00,,,-99.99,,2013-06-17 21:43:00,
2013-06-17 17:52:00,67.0,58.0,-100.00,West,270,0.0,2.0,72,0.00,,,-99.99,,2013-06-17 21:52:00,
2013-06-17 18:01:00,67.0,60.0,-100.00,SW,235,0.0,2.0,78,0.00,,,-99.99,,2013-06-17 22:01:00,
2013-06-17 18:12:00,67.0,58.0,-100.00,West,275,0.0,2.0,73,0.00,,,-99.99,,2013-06-17 22:12:00,
2013-06-17 18:22:00,67.0,58.0,-100.00,West,275,0.0,2.0,73,0.00,,,-99.99,,2013-06-17 22:22:00,
2013-06-17 18:34:00,67.0,60.0,-100.00,West,260,0.0,2.0,77,0.00,,,-99.99,,2013-06-17 22:34:00,
2013-06-17 18:43:00,67.0,60.0,-100.00,South,185,0.0,1.0,76,0.00,,,-99.99,,2013-06-17 22:43:00,
2013-06-17 18:53:00,66.0,59.0,-100.00,NW,320,1.0,3.0,76,0.00,,,-99.99,,2013-06-17 22:53:00,
2013-06-17 19:02:00,66.0,60.0,-100.00,West,270,0.0,2.0,78,0.00,,,-99.99,,2013-06-17 23:02:00,
2013-06-17 19:11:00,66.0,59.0,-100.00,WNW,285,1.0,4.0,78,0.00,,,-99.99,,2013-06-17 23:11:00,
2013-06-17 19:22:00,67.0,58.0,-100.00,NNW,335,1.0,4.0,74,0.00,,,-99.99,,2013-06-17 23:22:00,
2013-06-17 19:33:00,67.0,59.0,-100.00,WNW,300,1.0,2.0,74,0.00,,,-99.99,,2013-06-17 23:33:00,
2013-06-17 19:43:00,67.0,58.0,-100.00,SW,235,0.0,3.0,72,0.00,,,-99.99,,2013-06-17 23:43:00,
2013-06-17 19:53:00,67.0,60.0,-100.00,NNE,20,1.0,4.0,78,0.00,,,-99.99,,2013-06-17 23:53:00,
2013-06-17 20:01:00,65.0,59.0,-100.00,SSW,195,0.0,2.0,80,0.00,,,-99.99,,2013-06-18 00:01:00,
2013-06-17 20:12:00,65.0,58.0,-100.00,East,85,1.0,4.0,77,0.00,,,-99.99,,2013-06-18 00:12:00,
2013-06-17 20:22:00,65.0,58.0,-100.00,WNW,300,1.0,4.0,77,0.00,,,-99.99,,2013-06-18 00:22:00,
2013-06-17 20:33:00,65.0,59.0,-100.00,WNW,285,1.0,2.0,81,0.00,,,-99.99,,2013-06-18 00:33:00,
2013-06-17 20:43:00,63.0,57.0,-100.00,East,95,2.0,5.0,78,0.00,,,-99.99,,2013-06-18 00:43:00,
2013-06-17 20:52:00,63.0,57.0,-100.00,NNW,330,2.0,7.0,79,0.00,,,-99.99,,2013-06-18 00:52:00,
2013-06-17 21:01:00,63.0,56.0,-100.00,WNW,290,1.0,4.0,76,0.00,,,-99.99,,2013-06-18 01:01:00,
2013-06-17 21:12:00,63.0,56.0,-100.00,NW,320,1.0,4.0,76,0.00,,,-99.99,,2013-06-18 01:12:00,
2013-06-17 21:23:00,63.0,55.0,-100.00,NW,310,2.0,6.0,74,0.00,,,-99.99,,2013-06-18 01:23:00,
2013-06-17 21:34:00,63.0,54.0,-100.00,NW,315,6.0,12.0,72,0.00,,,-99.99,,2013-06-18 01:34:00,
2013-06-17 21:44:00,63.0,53.0,-100.00,NW,320,4.0,7.0,71,0.00,,,-99.99,,2013-06-18 01:44:00,
2013-06-17 21:53:00,63.0,53.0,-100.00,NNW,335,4.0,9.0,70,0.00,,,-99.99,,2013-06-18 01:53:00,
2013-06-17 22:02:00,63.0,53.0,-100.00,NNW,345,3.0,5.0,71,0.00,,,-99.99,,2013-06-18 02:02:00,
2013-06-17 22:12:00,62.0,54.0,-100.00,NNW,335,2.0,5.0,72,0.00,,,-99.99,,2013-06-18 02:12:00,
2013-06-17 22:22:00,62.0,53.0,-100.00,NNW,330,3.0,6.0,72,0.00,,,-99.99,,2013-06-18 02:22:00,
2013-06-17 22:34:00,62.0,53.0,-100.00,NNW,340,1.0,6.0,73,0.00,,,-99.99,,2013-06-18 02:34:00,
2013-06-17 22:43:00,61.0,55.0,-100.00,West,260,0.0,1.0,81,0.00,,,-99.99,,2013-06-18 02:43:00,
2013-06-17 22:53:00,60.0,55.0,-100.00,WSW,250,1.0,1.0,82,0.00,,,-99.99,,2013-06-18 02:53:00,
2013-06-17 23:02:00,60.0,55.0,-100.00,SSW,210,0.0,2.0,83,0.00,,,-99.99,,2013-06-18 03:02:00,
2013-06-17 23:12:00,60.0,55.0,-100.00,NW,315,1.0,2.0,83,0.00,,,-99.99,,2013-06-18 03:12:00,
2013-06-17 23:23:00,59.0,55.0,-100.00,NW,315,2.0,4.0,86,0.00,,,-99.99,,2013-06-18 03:23:00,
2013-06-17 23:34:00,58.0,54.0,-100.00,WSW,245,1.0,2.0,87,0.00,,,-99.99,,2013-06-18 03:34:00,
2013-06-17 23:43:00,57.0,53.0,-100.00,West,270,0.0,1.0,88,0.00,,,-99.99,,2013-06-18 03:43:00,
2013-06-17 23:53:00,56.0,53.0,-100.00,WSW,255,0.0,1.0,88,0.00,,,-99.99,,2013-06-18 03:53:00,